Terminal Aerodrome Forecast
Issued by NWS

Home | Current Version | Previous Version | Text Only | Print | Product List | Glossary On
Versions: 1 2 3 4 5 6 7 8 9 10 11 12 13 14 15 16 17 18 19 20 21 22
000
FTUS42 TJSJ 231100
TAFISX
TAF
TISX 231127Z 2312/2412 12010KT P6SM VCSH SCT020 BKN040
     FM231330 13012KT P6SM VCSH SCT022 BKN060
     FM232100 10008KT P6SM SCT022 SCT050=

USA.gov is the U.S. government's official web portal to all federal, state and local government web resources and services.